createdAt,value
2018-12-31T00:00:10.292Z,8.60
2018-12-31T00:02:40.461Z,8.60
2018-12-31T00:05:09.859Z,8.60
2018-12-31T00:07:39.265Z,8.60
2018-12-31T00:10:10.677Z,8.60
2018-12-31T00:12:40.066Z,8.60
2018-12-31T00:15:09.471Z,8.70
2018-12-31T00:17:38.932Z,8.60
2018-12-31T00:20:08.397Z,8.60
2018-12-31T00:22:37.876Z,8.60
2018-12-31T00:25:07.348Z,8.60
2018-12-31T00:27:36.706Z,8.60
2018-12-31T00:30:06.248Z,8.60
2018-12-31T00:32:35.655Z,8.60
2018-12-31T00:35:05.550Z,8.60
2018-12-31T00:37:34.957Z,8.60
2018-12-31T00:40:05.091Z,8.60
2018-12-31T00:42:34.624Z,8.60
2018-12-31T00:45:04.658Z,8.60
2018-12-31T00:47:34.081Z,8.60
2018-12-31T00:50:03.823Z,8.60
2018-12-31T00:52:34.829Z,8.60
2018-12-31T00:55:04.367Z,8.60
2018-12-31T00:57:33.776Z,8.60
2018-12-31T01:00:03.259Z,8.60
2018-12-31T01:02:32.794Z,8.60
2018-12-31T01:05:02.196Z,8.70
2018-12-31T01:07:31.669Z,8.70
2018-12-31T01:10:01.184Z,8.60
2018-12-31T01:12:30.704Z,8.70
2018-12-31T01:15:00.174Z,8.70
2018-12-31T01:17:29.533Z,8.70
2018-12-31T01:19:59.040Z,8.70
2018-12-31T01:22:30.045Z,8.70
2018-12-31T01:24:59.506Z,8.70
2018-12-31T01:27:29.037Z,8.70
2018-12-31T01:29:58.526Z,8.70
2018-12-31T01:32:28.070Z,8.70
2018-12-31T01:34:57.468Z,8.70
2018-12-31T01:37:26.908Z,8.70
2018-12-31T01:39:56.302Z,8.70
2018-12-31T01:42:25.732Z,8.70
2018-12-31T01:44:55.190Z,8.70
2018-12-31T01:47:24.551Z,8.70
2018-12-31T01:49:54.016Z,8.70
2018-12-31T01:52:23.512Z,8.70
2018-12-31T01:54:52.915Z,8.70
2018-12-31T01:57:22.330Z,8.70
2018-12-31T01:59:51.816Z,8.70
2018-12-31T02:02:21.180Z,8.60
2018-12-31T02:04:50.579Z,8.60
2018-12-31T02:07:20.189Z,8.60
2018-12-31T02:09:49.674Z,8.60
2018-12-31T02:12:19.035Z,8.60
2018-12-31T02:14:48.435Z,8.60
2018-12-31T02:17:17.794Z,8.60
2018-12-31T02:19:47.524Z,8.60
2018-12-31T02:22:16.957Z,8.60
2018-12-31T02:24:46.354Z,8.70
2018-12-31T02:27:15.820Z,8.70
2018-12-31T02:29:45.268Z,8.70
2018-12-31T02:32:14.707Z,8.70
2018-12-31T02:34:44.163Z,8.70
2018-12-31T02:37:13.525Z,8.70
2018-12-31T02:39:43.007Z,8.70
2018-12-31T02:42:12.374Z,8.70
2018-12-31T02:44:42.146Z,8.70
2018-12-31T02:47:11.504Z,8.70
2018-12-31T02:49:41.001Z,8.70
2018-12-31T02:52:10.355Z,8.70
2018-12-31T02:54:39.758Z,8.70
2018-12-31T02:57:09.119Z,8.70
2018-12-31T02:59:39.768Z,8.70
2018-12-31T03:02:10.849Z,8.70
2018-12-31T03:04:40.321Z,8.70
2018-12-31T03:07:09.822Z,8.70
2018-12-31T03:09:39.343Z,8.70
2018-12-31T03:12:08.878Z,8.60
2018-12-31T03:14:38.361Z,8.60
2018-12-31T03:17:09.249Z,8.60
2018-12-31T03:19:38.722Z,8.60
2018-12-31T03:22:08.987Z,8.70
2018-12-31T03:24:38.426Z,8.60
2018-12-31T03:27:09.366Z,8.70
2018-12-31T03:29:38.917Z,8.70
2018-12-31T03:32:08.372Z,8.70
2018-12-31T03:34:37.893Z,8.70
2018-12-31T03:37:07.874Z,8.70
2018-12-31T03:39:37.222Z,8.70
2018-12-31T03:42:06.707Z,8.70
2018-12-31T03:44:36.771Z,8.70
2018-12-31T03:47:06.173Z,8.60
2018-12-31T03:49:35.669Z,8.70
2018-12-31T03:52:05.082Z,8.60
2018-12-31T03:54:34.610Z,8.60
2018-12-31T03:57:04.063Z,8.60
2018-12-31T03:59:33.476Z,8.60
2018-12-31T04:02:02.905Z,8.60
2018-12-31T04:04:32.304Z,8.60
2018-12-31T04:07:03.423Z,8.60
2018-12-31T04:09:32.809Z,8.60
2018-12-31T04:12:02.278Z,8.60
2018-12-31T04:14:31.665Z,8.60
2018-12-31T04:17:01.205Z,8.50
2018-12-31T04:19:30.767Z,8.60
2018-12-31T04:22:00.161Z,8.50
2018-12-31T04:24:29.639Z,8.50
2018-12-31T04:26:59.659Z,8.50
2018-12-31T04:29:29.238Z,8.40
2018-12-31T04:31:58.672Z,8.40
2018-12-31T04:34:29.671Z,8.40
2018-12-31T04:36:59.099Z,8.40
2018-12-31T04:39:28.599Z,8.40
2018-12-31T04:41:58.029Z,8.40
2018-12-31T04:44:27.523Z,8.40
2018-12-31T04:46:58.498Z,8.40
2018-12-31T04:49:29.490Z,8.40
2018-12-31T04:51:58.858Z,8.40
2018-12-31T04:54:28.338Z,8.40
2018-12-31T04:56:57.702Z,8.30
2018-12-31T04:59:27.181Z,8.40
2018-12-31T05:01:56.591Z,8.40
2018-12-31T05:04:26.095Z,8.30
2018-12-31T05:06:55.459Z,8.30
2018-12-31T05:09:24.924Z,8.30
2018-12-31T05:11:54.282Z,8.30
2018-12-31T05:14:26.973Z,8.30
2018-12-31T05:16:56.520Z,8.30
2018-12-31T05:19:25.919Z,8.30
2018-12-31T05:21:55.312Z,8.30
2018-12-31T05:24:24.839Z,8.40
2018-12-31T05:26:54.236Z,8.40
2018-12-31T05:29:23.639Z,8.40
2018-12-31T05:31:54.583Z,8.40
2018-12-31T05:34:24.060Z,8.30
2018-12-31T05:36:53.467Z,8.30
2018-12-31T05:39:22.935Z,8.30
2018-12-31T05:41:53.087Z,8.30
2018-12-31T05:44:22.581Z,8.30
2018-12-31T05:46:51.979Z,8.30
2018-12-31T05:49:21.375Z,8.30
2018-12-31T05:51:50.775Z,8.30
2018-12-31T05:54:20.226Z,8.30
2018-12-31T05:56:51.154Z,8.30
2018-12-31T05:59:22.092Z,8.30
2018-12-31T06:01:51.487Z,8.30
2018-12-31T06:04:20.990Z,8.30
2018-12-31T06:06:50.532Z,8.30
2018-12-31T06:09:19.916Z,8.30
2018-12-31T06:11:50.740Z,8.30
2018-12-31T06:14:20.135Z,8.30
2018-12-31T06:16:49.611Z,8.30
2018-12-31T06:19:19.014Z,8.30
2018-12-31T06:21:48.570Z,8.40
2018-12-31T06:24:17.959Z,8.40
2018-12-31T06:26:47.417Z,8.40
2018-12-31T06:29:17.959Z,8.40
2018-12-31T06:31:47.811Z,8.40
2018-12-31T06:34:17.207Z,8.40
2018-12-31T06:36:46.986Z,8.30
2018-12-31T06:39:16.451Z,8.40
2018-12-31T06:41:47.475Z,8.30
2018-12-31T06:44:16.884Z,8.30
2018-12-31T06:46:46.278Z,8.30
2018-12-31T06:49:15.708Z,8.40
2018-12-31T06:51:45.247Z,8.40
2018-12-31T06:54:15.914Z,8.40
2018-12-31T06:56:45.394Z,8.40
2018-12-31T06:59:14.864Z,8.40
2018-12-31T07:01:45.262Z,8.40
2018-12-31T07:04:14.632Z,8.40
2018-12-31T07:06:44.046Z,8.40
2018-12-31T07:09:13.559Z,8.40
2018-12-31T07:11:43.031Z,8.40
2018-12-31T07:14:12.564Z,8.40
2018-12-31T07:16:42.084Z,8.40
2018-12-31T07:19:11.460Z,8.30
2018-12-31T07:21:40.847Z,8.30
2018-12-31T07:24:10.308Z,8.30
2018-12-31T07:26:39.774Z,8.30
2018-12-31T07:29:09.315Z,8.30
2018-12-31T07:31:38.914Z,8.30
2018-12-31T07:34:08.377Z,8.30
2018-12-31T07:36:38.135Z,8.30
2018-12-31T07:39:07.666Z,8.30
2018-12-31T07:41:37.058Z,8.30
2018-12-31T07:44:07.939Z,8.30
2018-12-31T07:46:37.442Z,8.30
2018-12-31T07:49:06.845Z,8.30
2018-12-31T07:51:36.235Z,8.30
2018-12-31T07:54:05.700Z,8.30
2018-12-31T07:56:35.183Z,8.30
2018-12-31T07:59:04.704Z,8.30
2018-12-31T08:01:34.269Z,8.30
2018-12-31T08:04:03.656Z,8.30
2018-12-31T08:06:33.051Z,8.30
2018-12-31T08:09:02.578Z,8.30
2018-12-31T08:11:32.107Z,8.40
2018-12-31T08:14:02.005Z,8.40
2018-12-31T08:16:31.477Z,8.30
2018-12-31T08:19:00.883Z,8.30
2018-12-31T08:21:30.259Z,8.30
2018-12-31T08:24:01.561Z,8.30
2018-12-31T08:26:30.991Z,8.20
2018-12-31T08:29:00.401Z,8.20
2018-12-31T08:31:29.857Z,8.30
2018-12-31T08:33:59.534Z,8.30
2018-12-31T08:36:28.964Z,8.30
2018-12-31T08:38:58.437Z,8.30
2018-12-31T08:41:27.809Z,8.40
2018-12-31T08:43:57.293Z,8.40
2018-12-31T08:46:26.660Z,8.50
2018-12-31T08:48:57.663Z,8.50
2018-12-31T08:51:27.089Z,8.60
2018-12-31T08:53:56.543Z,8.60
2018-12-31T08:56:25.964Z,8.60
2018-12-31T08:58:55.433Z,8.70
2018-12-31T09:01:24.830Z,8.70
2018-12-31T09:03:54.377Z,8.80
2018-12-31T09:06:23.926Z,8.80
2018-12-31T09:08:53.325Z,8.80
2018-12-31T09:11:22.698Z,8.90
2018-12-31T09:13:52.158Z,8.90
2018-12-31T09:16:21.562Z,8.90
2018-12-31T09:18:50.954Z,9.00
2018-12-31T09:21:20.353Z,8.90
2018-12-31T09:23:49.835Z,8.90
2018-12-31T09:26:19.235Z,9.00
2018-12-31T09:28:51.724Z,9.00
2018-12-31T09:31:21.118Z,9.00
2018-12-31T09:33:50.502Z,9.00
2018-12-31T09:36:20.121Z,9.00
2018-12-31T09:38:51.224Z,9.00
2018-12-31T09:41:20.622Z,9.10
2018-12-31T09:43:50.071Z,9.10
2018-12-31T09:46:19.465Z,9.10
2018-12-31T09:48:48.932Z,9.10
2018-12-31T09:51:18.335Z,9.20
2018-12-31T09:53:47.739Z,9.20
2018-12-31T09:56:17.302Z,9.20
2018-12-31T09:58:46.774Z,9.30
2018-12-31T10:01:16.161Z,9.40
2018-12-31T10:03:47.710Z,9.40
2018-12-31T10:06:17.178Z,9.40
2018-12-31T10:08:49.313Z,9.40
2018-12-31T10:11:17.671Z,9.40
2018-12-31T10:13:47.312Z,9.50
2018-12-31T10:16:16.699Z,9.50
2018-12-31T10:18:47.723Z,9.50
2018-12-31T10:21:17.252Z,9.50
2018-12-31T10:23:46.741Z,9.50
2018-12-31T10:26:16.213Z,9.50
2018-12-31T10:28:46.189Z,9.60
2018-12-31T10:31:15.672Z,9.60
2018-12-31T10:33:45.261Z,9.60
2018-12-31T10:36:14.654Z,9.50
2018-12-31T10:38:44.057Z,9.60
2018-12-31T10:41:14.068Z,9.60
2018-12-31T10:43:43.536Z,9.60
2018-12-31T10:46:12.932Z,9.60
2018-12-31T10:48:42.519Z,9.60
2018-12-31T10:51:11.927Z,9.70
2018-12-31T10:53:42.968Z,9.70
2018-12-31T10:56:12.372Z,9.70
2018-12-31T10:58:41.760Z,9.70
2018-12-31T11:01:11.159Z,9.70
2018-12-31T11:03:42.036Z,9.60
2018-12-31T11:06:11.738Z,9.60
2018-12-31T11:08:41.206Z,9.70
2018-12-31T11:11:10.671Z,9.70
2018-12-31T11:13:40.297Z,9.70
2018-12-31T11:16:09.694Z,9.70
2018-12-31T11:18:39.090Z,9.70
2018-12-31T11:21:08.726Z,9.80
2018-12-31T11:23:38.213Z,9.80
2018-12-31T11:26:07.773Z,9.80
2018-12-31T11:28:38.247Z,9.90
2018-12-31T11:31:07.780Z,9.80
2018-12-31T11:33:37.163Z,9.90
2018-12-31T11:36:06.619Z,9.90
2018-12-31T11:38:36.090Z,10.00
2018-12-31T11:41:05.500Z,10.00
2018-12-31T11:43:34.977Z,10.10
2018-12-31T11:46:04.367Z,10.10
2018-12-31T11:48:33.730Z,10.10
2018-12-31T11:51:03.272Z,10.10
2018-12-31T11:53:32.729Z,10.10
2018-12-31T11:56:02.197Z,10.00
2018-12-31T11:58:31.567Z,10.10
2018-12-31T12:01:01.075Z,10.20
2018-12-31T12:03:30.608Z,10.10
2018-12-31T12:06:00.231Z,10.00
2018-12-31T12:08:29.589Z,10.10
2018-12-31T12:10:59.359Z,10.00
2018-12-31T12:13:29.337Z,10.00
2018-12-31T12:15:58.854Z,10.00
2018-12-31T12:18:29.841Z,10.00
2018-12-31T12:20:59.389Z,10.00
2018-12-31T12:23:28.927Z,9.90
2018-12-31T12:25:58.370Z,9.90
2018-12-31T12:28:27.808Z,9.80
2018-12-31T12:30:57.347Z,9.80
2018-12-31T12:33:26.786Z,9.80
2018-12-31T12:35:56.421Z,9.80
2018-12-31T12:38:25.930Z,9.80
2018-12-31T12:40:55.336Z,9.80
2018-12-31T12:43:24.776Z,9.90
2018-12-31T12:45:54.250Z,9.80
2018-12-31T12:48:23.748Z,9.90
2018-12-31T12:50:53.872Z,9.90
2018-12-31T12:53:23.306Z,9.90
2018-12-31T12:55:52.786Z,9.90
2018-12-31T12:58:22.220Z,9.90
2018-12-31T13:00:51.982Z,9.90
2018-12-31T13:03:21.352Z,9.90
2018-12-31T13:05:50.808Z,9.90
2018-12-31T13:08:20.244Z,9.90
2018-12-31T13:10:49.679Z,9.90
2018-12-31T13:13:19.605Z,9.90
2018-12-31T13:15:49.065Z,9.90
2018-12-31T13:18:18.496Z,9.90
2018-12-31T13:20:47.972Z,9.80
2018-12-31T13:23:17.407Z,9.80
2018-12-31T13:25:46.877Z,9.90
2018-12-31T13:28:16.457Z,9.80
2018-12-31T13:30:47.613Z,9.80
2018-12-31T13:33:17.136Z,9.90
2018-12-31T13:35:46.734Z,9.90
2018-12-31T13:38:16.111Z,9.80
2018-12-31T13:40:45.600Z,9.80
2018-12-31T13:43:15.024Z,9.80
2018-12-31T13:45:44.497Z,9.80
2018-12-31T13:48:14.401Z,9.70
2018-12-31T13:50:44.138Z,9.70
2018-12-31T13:53:13.651Z,9.70
2018-12-31T13:55:43.128Z,9.70
2018-12-31T13:58:12.563Z,9.70
2018-12-31T14:00:42.241Z,9.70
2018-12-31T14:03:17.181Z,9.70
2018-12-31T14:05:43.116Z,9.70
2018-12-31T14:08:16.125Z,9.70
2018-12-31T14:10:45.554Z,9.70
2018-12-31T14:13:15.018Z,9.70
2018-12-31T14:15:44.419Z,9.70
2018-12-31T14:18:13.997Z,9.70
2018-12-31T14:20:43.527Z,9.70
2018-12-31T14:23:13.239Z,9.70
2018-12-31T14:25:42.786Z,9.60
2018-12-31T14:28:12.245Z,9.60
2018-12-31T14:30:41.738Z,9.60
2018-12-31T14:33:11.205Z,9.40
2018-12-31T14:35:45.793Z,9.40
2018-12-31T14:38:11.763Z,9.40
2018-12-31T14:40:41.277Z,9.40
2018-12-31T14:43:10.744Z,9.30
2018-12-31T14:45:40.360Z,9.30
2018-12-31T14:48:09.819Z,9.20
2018-12-31T14:50:39.191Z,9.20
2018-12-31T14:53:08.656Z,9.10
2018-12-31T14:55:38.147Z,9.10
2018-12-31T14:58:09.072Z,9.00
2018-12-31T15:00:38.653Z,9.00
2018-12-31T15:03:08.119Z,9.00
2018-12-31T15:05:37.483Z,8.90
2018-12-31T15:08:06.966Z,8.90
2018-12-31T15:10:36.809Z,8.90
2018-12-31T15:13:06.278Z,8.90
2018-12-31T15:15:35.782Z,8.90
2018-12-31T15:18:06.849Z,8.80
2018-12-31T15:20:36.292Z,8.80
2018-12-31T15:23:05.772Z,8.70
2018-12-31T15:25:35.205Z,8.70
2018-12-31T15:28:05.117Z,8.70
2018-12-31T15:30:34.626Z,8.70
2018-12-31T15:33:04.175Z,8.80
2018-12-31T15:35:33.539Z,8.80
2018-12-31T15:38:03.301Z,8.70
2018-12-31T15:40:32.745Z,8.80
2018-12-31T15:43:02.215Z,8.80
2018-12-31T15:45:33.225Z,8.80
2018-12-31T15:48:02.780Z,8.80
2018-12-31T15:50:32.218Z,8.80
2018-12-31T15:53:01.624Z,8.80
2018-12-31T15:55:31.268Z,8.80
2018-12-31T15:58:00.942Z,8.80
2018-12-31T16:00:30.310Z,8.80
2018-12-31T16:02:59.845Z,8.90
2018-12-31T16:05:29.217Z,8.90
2018-12-31T16:07:58.691Z,8.90
2018-12-31T16:10:30.176Z,8.90
2018-12-31T16:12:59.687Z,8.90
2018-12-31T16:15:30.664Z,9.00
2018-12-31T16:18:00.141Z,8.90
2018-12-31T16:20:29.649Z,8.90
2018-12-31T16:22:59.125Z,8.90
2018-12-31T16:25:28.579Z,8.90
2018-12-31T16:27:59.564Z,8.90
2018-12-31T16:30:29.176Z,8.90
2018-12-31T16:32:58.834Z,8.90
2018-12-31T16:35:28.278Z,8.90
2018-12-31T16:37:57.826Z,8.90
2018-12-31T16:40:27.357Z,8.90
2018-12-31T16:42:56.754Z,8.90
2018-12-31T16:45:26.337Z,8.90
2018-12-31T16:47:55.728Z,9.00
2018-12-31T16:50:26.632Z,8.90
2018-12-31T16:52:56.143Z,8.90
2018-12-31T16:55:25.664Z,9.00
2018-12-31T16:57:55.315Z,9.00
2018-12-31T17:00:24.752Z,9.00
2018-12-31T17:02:54.139Z,8.90
2018-12-31T17:05:23.647Z,8.90
2018-12-31T17:07:53.163Z,8.90
2018-12-31T17:10:22.720Z,8.80
2018-12-31T17:12:52.192Z,8.80
2018-12-31T17:15:21.659Z,8.70
2018-12-31T17:17:52.726Z,8.60
2018-12-31T17:20:22.208Z,8.60
2018-12-31T17:22:52.091Z,8.50
2018-12-31T17:25:21.555Z,8.50
2018-12-31T17:27:51.070Z,8.50
2018-12-31T17:30:20.543Z,8.60
2018-12-31T17:32:51.715Z,8.60
2018-12-31T17:35:21.714Z,8.60
2018-12-31T17:37:51.181Z,8.70
2018-12-31T17:40:20.735Z,8.70
2018-12-31T17:42:50.371Z,8.70
2018-12-31T17:45:23.268Z,8.70
2018-12-31T17:47:51.008Z,8.70
2018-12-31T17:50:20.481Z,8.70
2018-12-31T17:52:50.433Z,8.70
2018-12-31T17:55:19.893Z,8.70
2018-12-31T17:57:49.379Z,8.70
2018-12-31T18:00:19.001Z,8.70
2018-12-31T18:02:48.471Z,8.70
2018-12-31T18:05:17.962Z,8.80
2018-12-31T18:07:47.494Z,8.70
2018-12-31T18:10:16.981Z,8.80
2018-12-31T18:12:46.458Z,8.80
2018-12-31T18:15:17.491Z,8.70
2018-12-31T18:17:47.073Z,8.80
2018-12-31T18:20:16.547Z,8.80
2018-12-31T18:22:46.316Z,8.80
2018-12-31T18:25:15.788Z,8.80
2018-12-31T18:27:45.289Z,8.80
2018-12-31T18:30:14.839Z,8.70
2018-12-31T18:32:44.379Z,8.80
2018-12-31T18:35:13.986Z,8.80
2018-12-31T18:37:45.096Z,8.70
2018-12-31T18:40:14.455Z,8.70
2018-12-31T18:42:43.854Z,8.70
2018-12-31T18:45:13.298Z,8.70
2018-12-31T18:47:42.777Z,8.80
2018-12-31T18:50:12.293Z,8.70
2018-12-31T18:52:41.757Z,8.70
2018-12-31T18:55:11.208Z,8.70
2018-12-31T18:57:40.647Z,8.70
2018-12-31T19:00:10.351Z,8.70
2018-12-31T19:02:39.840Z,8.70
2018-12-31T19:05:11.172Z,8.70
2018-12-31T19:07:40.449Z,8.70
2018-12-31T19:10:11.569Z,8.70
2018-12-31T19:12:41.119Z,8.70
2018-12-31T19:15:10.556Z,8.70
2018-12-31T19:17:40.106Z,8.70
2018-12-31T19:20:09.752Z,8.70
2018-12-31T19:22:40.862Z,8.70
2018-12-31T19:25:11.379Z,8.70
2018-12-31T19:27:40.892Z,8.70
2018-12-31T19:30:10.469Z,8.70
2018-12-31T19:32:39.938Z,8.70
2018-12-31T19:35:09.956Z,8.70
2018-12-31T19:37:39.364Z,8.70
2018-12-31T19:40:08.879Z,8.70
2018-12-31T19:42:38.350Z,8.70
2018-12-31T19:45:07.885Z,8.70
2018-12-31T19:47:37.788Z,8.80
2018-12-31T19:50:07.296Z,8.70
2018-12-31T19:52:36.748Z,8.70
2018-12-31T19:55:07.128Z,8.80
2018-12-31T19:57:36.655Z,8.70
2018-12-31T20:00:08.666Z,8.70
2018-12-31T20:02:38.295Z,8.70
2018-12-31T20:05:07.801Z,8.70
2018-12-31T20:07:37.277Z,8.70
2018-12-31T20:10:06.855Z,8.70
2018-12-31T20:12:36.265Z,8.70
2018-12-31T20:15:06.751Z,8.70
2018-12-31T20:17:36.317Z,8.70
2018-12-31T20:20:06.156Z,8.70
2018-12-31T20:22:36.742Z,8.70
2018-12-31T20:25:06.695Z,8.70
2018-12-31T20:27:36.171Z,8.70
2018-12-31T20:30:05.745Z,8.80
2018-12-31T20:32:35.247Z,8.70
2018-12-31T20:35:04.915Z,8.70
2018-12-31T20:37:37.669Z,8.80
2018-12-31T20:40:07.126Z,8.80
2018-12-31T20:42:36.611Z,8.80
2018-12-31T20:45:06.574Z,8.70
2018-12-31T20:47:36.084Z,8.70
2018-12-31T20:50:07.200Z,8.60
2018-12-31T20:52:36.674Z,8.60
2018-12-31T20:55:07.803Z,8.60
2018-12-31T20:57:37.195Z,8.60
2018-12-31T21:00:08.196Z,8.60
2018-12-31T21:02:37.889Z,8.50
2018-12-31T21:05:07.617Z,8.50
2018-12-31T21:07:37.615Z,8.50
2018-12-31T21:10:10.365Z,8.50
2018-12-31T21:12:40.307Z,8.50
2018-12-31T21:15:09.963Z,8.60
2018-12-31T21:17:39.426Z,8.60
2018-12-31T21:20:09.257Z,8.60
2018-12-31T21:22:38.711Z,8.60
2018-12-31T21:25:08.274Z,8.60
2018-12-31T21:27:37.827Z,8.60
2018-12-31T21:30:10.055Z,8.50
2018-12-31T21:32:39.712Z,8.50
2018-12-31T21:35:09.441Z,8.50
2018-12-31T21:37:38.876Z,8.50
2018-12-31T21:40:09.236Z,8.50
2018-12-31T21:42:38.621Z,8.50
2018-12-31T21:45:08.231Z,8.40
2018-12-31T21:47:38.313Z,8.40
2018-12-31T21:50:07.895Z,8.40
2018-12-31T21:52:37.415Z,8.40
2018-12-31T21:55:07.022Z,8.30
2018-12-31T21:57:36.481Z,8.30
2018-12-31T22:00:08.658Z,8.30
2018-12-31T22:02:38.614Z,8.30
2018-12-31T22:05:08.084Z,8.30
2018-12-31T22:07:37.534Z,8.30
2018-12-31T22:10:07.085Z,8.30
2018-12-31T22:12:38.140Z,8.30
2018-12-31T22:15:09.657Z,8.30
2018-12-31T22:17:39.238Z,8.30
2018-12-31T22:20:09.595Z,8.30
2018-12-31T22:22:39.247Z,8.30
2018-12-31T22:25:09.804Z,8.30
2018-12-31T22:27:42.455Z,8.30
2018-12-31T22:30:12.011Z,8.30
2018-12-31T22:32:41.533Z,8.30
2018-12-31T22:35:11.335Z,8.30
2018-12-31T22:37:41.264Z,8.30
2018-12-31T22:40:10.741Z,8.30
2018-12-31T22:42:41.951Z,8.30
2018-12-31T22:45:11.406Z,8.30
2018-12-31T22:47:40.893Z,8.30
2018-12-31T22:50:10.584Z,8.30
2018-12-31T22:52:40.286Z,8.30
2018-12-31T22:55:09.996Z,8.30
2018-12-31T22:57:39.471Z,8.30
2018-12-31T23:00:12.162Z,8.30
2018-12-31T23:02:41.677Z,8.30
2018-12-31T23:05:11.526Z,8.30
2018-12-31T23:07:40.959Z,8.30
2018-12-31T23:10:10.508Z,8.30
2018-12-31T23:12:40.284Z,8.30
2018-12-31T23:15:13.336Z,8.30
2018-12-31T23:17:44.600Z,8.20
2018-12-31T23:20:16.786Z,8.20
2018-12-31T23:22:46.337Z,8.20
2018-12-31T23:25:19.049Z,8.20
2018-12-31T23:27:48.526Z,8.30
2018-12-31T23:30:18.007Z,8.30
2018-12-31T23:32:47.495Z,8.20
2018-12-31T23:35:17.025Z,8.20
2018-12-31T23:37:46.991Z,8.20
2018-12-31T23:40:16.471Z,8.20
2018-12-31T23:42:45.954Z,8.30
2018-12-31T23:45:15.424Z,8.20
2018-12-31T23:47:45.037Z,8.20
2018-12-31T23:50:14.474Z,8.30
2018-12-31T23:52:44.025Z,8.30
2018-12-31T23:55:13.480Z,8.20
2018-12-31T23:57:43.025Z,8.30
